East Troy, Wisconsin
Current Conditions -  °F | °C
As of 1:35 AM on Saturday 01 Nov 2014 (Local Time) from KBUU Reporting Station
Overcast Overcast  
Wind Chill: 23°   Ceiling: 3400
Heat Index: 32°   Visibility: 10mi
Dew Point: 19°   Wind: 12mph
Humidity: 59%   Direction: 360°N
Pressure: 30.38"   Gusts: 17mph
Location:  42.79°N, 88.41°W
Report Text: KBUU 010635Z AUTO 36010G15KT 10SM OVC034 00/M07 A3038 RMK AO2 T00011071
Loading
Personal Weather Stations






























Interactive Weather Map
Tropical Storm Tracking
New forecast layout! Learn more

10-Day Weather Forecast

Advertisements
Track Severe Weather on mobile